createdAt,value
2019-05-19T00:02:48.747Z,10.01
2019-05-19T00:06:52.465Z,9.89
2019-05-19T00:10:55.884Z,9.76
2019-05-19T00:14:59.359Z,9.84
2019-05-19T00:19:02.778Z,9.84
2019-05-19T00:23:06.496Z,9.53
2019-05-19T00:27:09.923Z,9.48
2019-05-19T00:31:13.346Z,9.47
2019-05-19T00:35:16.875Z,9.61
2019-05-19T00:39:20.263Z,9.72
2019-05-19T00:43:24.193Z,9.67
2019-05-19T00:47:28.175Z,9.53
2019-05-19T00:51:32.421Z,9.42
2019-05-19T00:55:36.375Z,9.47
2019-05-19T00:59:40.569Z,9.34
2019-05-19T01:03:44.104Z,9.37
2019-05-19T01:07:47.499Z,9.32
2019-05-19T01:11:50.927Z,9.36
2019-05-19T01:15:54.686Z,9.29
2019-05-19T01:19:58.267Z,9.33
2019-05-19T01:24:01.800Z,9.21
2019-05-19T01:28:05.298Z,9.27
2019-05-19T01:32:08.915Z,9.26
2019-05-19T01:36:12.344Z,9.19
2019-05-19T01:40:16.114Z,9.07
2019-05-19T01:44:19.620Z,8.97
2019-05-19T01:48:23.042Z,8.98
2019-05-19T01:52:26.802Z,8.92
2019-05-19T01:56:30.187Z,8.96
2019-05-19T02:00:33.978Z,9.00
2019-05-19T02:04:37.396Z,8.70
2019-05-19T02:08:41.211Z,8.71
2019-05-19T02:12:44.707Z,8.66
2019-05-19T02:16:48.433Z,8.68
2019-05-19T02:20:52.147Z,8.77
2019-05-19T02:24:55.605Z,8.79
2019-05-19T02:28:59.022Z,8.79
2019-05-19T02:33:02.447Z,8.84
2019-05-19T02:37:05.886Z,8.80
2019-05-19T02:41:12.446Z,8.94
2019-05-19T02:45:16.041Z,8.77
2019-05-19T02:49:20.707Z,8.71
2019-05-19T02:53:25.068Z,8.56
2019-05-19T02:57:28.912Z,8.61
2019-05-19T03:01:34.112Z,8.64
2019-05-19T03:05:38.260Z,8.37
2019-05-19T03:09:41.958Z,8.28
2019-05-19T03:13:45.658Z,8.47
2019-05-19T03:17:49.367Z,8.41
2019-05-19T03:21:52.809Z,8.57
2019-05-19T03:25:56.247Z,8.78
2019-05-19T03:30:01.678Z,9.02
2019-05-19T03:34:05.466Z,9.38
2019-05-19T03:38:08.999Z,9.55
2019-05-19T03:42:12.424Z,9.62
2019-05-19T03:46:15.880Z,9.72
2019-05-19T03:50:19.399Z,9.88
2019-05-19T03:54:22.820Z,10.03
2019-05-19T03:58:26.323Z,10.39
2019-05-19T04:02:30.013Z,10.42
2019-05-19T04:06:33.849Z,10.63
2019-05-19T04:10:37.617Z,10.70
2019-05-19T04:14:41.347Z,10.86
2019-05-19T04:18:44.850Z,11.03
2019-05-19T04:22:48.295Z,11.35
2019-05-19T04:26:52.106Z,11.73
2019-05-19T04:30:55.562Z,11.95
2019-05-19T04:34:59.080Z,12.31
2019-05-19T04:39:02.774Z,12.65
2019-05-19T04:43:06.209Z,12.73
2019-05-19T04:47:09.928Z,12.60
2019-05-19T04:51:13.869Z,12.88
2019-05-19T04:55:17.297Z,12.93
2019-05-19T04:59:20.728Z,12.98
2019-05-19T05:03:24.198Z,13.31
2019-05-19T05:07:27.696Z,13.46
2019-05-19T05:11:31.556Z,13.58
2019-05-19T05:15:35.033Z,13.45
2019-05-19T05:19:38.498Z,13.61
2019-05-19T05:23:42.381Z,13.75
2019-05-19T05:27:46.142Z,13.65
2019-05-19T05:31:49.689Z,13.77
2019-05-19T05:35:53.149Z,13.46
2019-05-19T05:39:56.779Z,13.56
2019-05-19T05:44:00.240Z,13.56
2019-05-19T05:48:03.675Z,13.72
2019-05-19T05:52:07.106Z,14.04
2019-05-19T05:56:10.566Z,14.40
2019-05-19T06:00:15.972Z,14.81
2019-05-19T06:04:21.054Z,15.38
2019-05-19T06:08:28.382Z,15.58
2019-05-19T06:12:32.116Z,14.63
2019-05-19T06:16:37.283Z,15.13
2019-05-19T06:20:42.939Z,15.35
2019-05-19T06:24:46.487Z,15.51
2019-05-19T06:28:50.056Z,15.55
2019-05-19T06:32:55.116Z,15.78
2019-05-19T06:36:59.638Z,16.56
2019-05-19T06:41:03.229Z,16.89
2019-05-19T06:45:08.534Z,17.76
2019-05-19T06:49:12.284Z,17.49
2019-05-19T06:53:15.734Z,17.94
2019-05-19T06:57:19.156Z,18.64
2019-05-19T07:01:22.622Z,20.48
2019-05-19T07:05:26.050Z,18.16
2019-05-19T07:09:29.627Z,17.22
2019-05-19T07:13:33.045Z,19.44
2019-05-19T07:17:36.567Z,19.25
2019-05-19T07:21:39.989Z,21.62
2019-05-19T07:25:44.079Z,23.29
2019-05-19T07:29:47.806Z,24.76
2019-05-19T07:33:51.509Z,21.87
2019-05-19T07:37:54.955Z,21.33
2019-05-19T07:41:58.633Z,22.04
2019-05-19T07:46:02.058Z,21.35
2019-05-19T07:50:07.202Z,21.21
2019-05-19T07:54:10.969Z,20.28
2019-05-19T07:58:14.707Z,19.74
2019-05-19T08:02:18.419Z,18.35
2019-05-19T08:06:21.880Z,21.14
2019-05-19T08:10:25.362Z,22.52
2019-05-19T08:14:28.741Z,25.43
2019-05-19T08:18:32.472Z,27.63
2019-05-19T08:22:36.029Z,27.44
2019-05-19T08:26:40.758Z,29.01
2019-05-19T08:30:43.986Z,26.86
2019-05-19T08:34:47.708Z,30.25
2019-05-19T08:38:52.226Z,28.48
2019-05-19T08:42:55.961Z,28.96
2019-05-19T08:46:59.487Z,31.53
2019-05-19T08:51:02.921Z,30.39
2019-05-19T08:55:06.618Z,29.40
2019-05-19T08:59:10.033Z,29.44
2019-05-19T09:03:13.477Z,29.53
2019-05-19T09:07:17.222Z,28.18
2019-05-19T09:11:21.654Z,30.31
2019-05-19T09:15:25.091Z,32.68
2019-05-19T09:19:28.522Z,31.02
2019-05-19T09:23:32.457Z,33.21
2019-05-19T09:27:36.681Z,33.28
2019-05-19T09:31:41.503Z,30.83
2019-05-19T09:35:45.292Z,29.22
2019-05-19T09:39:49.258Z,33.89
2019-05-19T09:43:53.006Z,31.94
2019-05-19T09:47:56.641Z,31.19
2019-05-19T09:52:01.625Z,31.54
2019-05-19T09:56:05.052Z,32.47
2019-05-19T10:00:09.373Z,29.98
2019-05-19T10:04:13.036Z,28.21
2019-05-19T10:08:16.933Z,26.20
2019-05-19T10:12:20.666Z,26.57
2019-05-19T10:16:24.166Z,27.12
2019-05-19T10:20:27.672Z,25.82
2019-05-19T10:24:31.461Z,25.00
2019-05-19T10:28:34.897Z,24.97
2019-05-19T10:32:39.107Z,27.76
2019-05-19T10:36:42.605Z,27.64
2019-05-19T10:40:46.695Z,27.95
2019-05-19T10:44:50.133Z,28.61
2019-05-19T10:48:53.563Z,25.64
2019-05-19T10:52:56.982Z,27.57
2019-05-19T10:57:00.757Z,29.27
2019-05-19T11:01:04.471Z,28.00
2019-05-19T11:05:11.191Z,28.51
2019-05-19T11:09:13.636Z,26.55
2019-05-19T11:13:17.365Z,25.14
2019-05-19T11:17:20.796Z,24.85
2019-05-19T11:21:24.299Z,24.71
2019-05-19T11:25:33.958Z,26.48
2019-05-19T11:29:32.927Z,26.55
2019-05-19T11:33:36.362Z,25.36
2019-05-19T11:37:39.780Z,24.79
2019-05-19T11:41:43.221Z,26.22
2019-05-19T11:45:46.957Z,26.39
2019-05-19T11:49:50.387Z,25.18
2019-05-19T11:53:53.798Z,25.29
2019-05-19T11:57:57.623Z,25.69
2019-05-19T12:02:01.079Z,25.47
2019-05-19T12:06:04.824Z,25.45
2019-05-19T12:10:09.368Z,27.17
2019-05-19T12:14:13.445Z,27.42
2019-05-19T12:18:17.178Z,25.25
2019-05-19T12:22:20.604Z,25.37
2019-05-19T12:30:27.353Z,25.48
2019-05-19T12:34:30.949Z,25.91
2019-05-19T12:38:34.623Z,26.05
2019-05-19T12:42:38.043Z,26.80
2019-05-19T12:46:41.799Z,26.98
2019-05-19T12:50:45.413Z,25.57
2019-05-19T12:54:49.184Z,25.39
2019-05-19T12:58:52.695Z,25.89
2019-05-19T13:02:56.121Z,25.69
2019-05-19T13:06:59.536Z,26.09
2019-05-19T13:11:02.981Z,26.73
2019-05-19T13:15:08.519Z,26.07
2019-05-19T13:19:12.117Z,27.32
2019-05-19T13:23:17.749Z,27.36
2019-05-19T13:27:23.586Z,27.47
2019-05-19T13:31:27.944Z,27.64
2019-05-19T13:35:33.229Z,27.47
2019-05-19T13:39:38.374Z,27.58
2019-05-19T13:43:41.943Z,27.06
2019-05-19T13:47:45.437Z,26.14
2019-05-19T13:51:50.486Z,25.23
2019-05-19T13:55:54.601Z,24.66
2019-05-19T13:59:59.397Z,24.29
2019-05-19T14:04:04.911Z,24.20
2019-05-19T14:08:08.640Z,25.19
2019-05-19T14:12:13.040Z,25.63
2019-05-19T14:16:17.846Z,24.99
2019-05-19T14:20:22.830Z,24.71
2019-05-19T14:24:26.278Z,24.54
2019-05-19T14:28:30.775Z,24.33
2019-05-19T14:32:34.361Z,24.30
2019-05-19T14:36:38.415Z,25.25
2019-05-19T14:40:47.027Z,25.84
2019-05-19T14:44:52.067Z,26.16
2019-05-19T14:48:56.923Z,26.66
2019-05-19T14:53:00.516Z,27.01
2019-05-19T14:57:05.181Z,26.57
2019-05-19T15:01:10.992Z,25.70
2019-05-19T15:05:17.699Z,24.61
2019-05-19T15:09:22.944Z,24.07
2019-05-19T15:13:31.059Z,23.72
2019-05-19T15:17:34.504Z,23.90
2019-05-19T15:21:42.125Z,24.21
2019-05-19T15:25:50.160Z,25.02
2019-05-19T15:30:11.884Z,24.53
2019-05-19T15:34:05.171Z,24.16
2019-05-19T15:38:10.077Z,23.99
2019-05-19T15:42:15.733Z,23.78
2019-05-19T15:46:21.767Z,23.59
2019-05-19T15:50:26.702Z,23.30
2019-05-19T15:54:31.042Z,22.74
2019-05-19T15:58:36.684Z,22.57
2019-05-19T16:02:40.326Z,22.85
2019-05-19T16:06:44.327Z,22.98
2019-05-19T16:10:47.858Z,23.15
2019-05-19T16:14:51.273Z,23.12
2019-05-19T16:18:54.716Z,23.05
2019-05-19T16:22:58.346Z,22.91
2019-05-19T16:27:02.297Z,22.73
2019-05-19T16:31:05.757Z,22.73
2019-05-19T16:35:09.507Z,23.18
2019-05-19T16:39:12.939Z,23.47
2019-05-19T16:43:17.049Z,23.67
2019-05-19T16:47:20.484Z,23.66
2019-05-19T16:51:24.095Z,23.93
2019-05-19T16:55:30.127Z,23.98
2019-05-19T16:59:33.672Z,23.08
2019-05-19T17:03:37.189Z,22.86
2019-05-19T17:07:40.835Z,22.21
2019-05-19T17:11:44.385Z,21.99
2019-05-19T17:15:48.230Z,21.55
2019-05-19T17:19:52.258Z,21.35
2019-05-19T17:23:56.842Z,21.16
2019-05-19T17:28:00.356Z,21.13
2019-05-19T17:32:05.975Z,20.99
2019-05-19T17:36:09.247Z,20.99
2019-05-19T17:40:13.920Z,21.13
2019-05-19T17:44:18.602Z,21.11
2019-05-19T17:48:26.474Z,21.34
2019-05-19T17:52:29.155Z,21.34
2019-05-19T17:56:33.532Z,21.42
2019-05-19T18:00:43.127Z,21.44
2019-05-19T18:04:47.337Z,21.29
2019-05-19T18:08:51.093Z,21.28
2019-05-19T18:12:54.884Z,21.15
2019-05-19T18:16:58.851Z,21.12
2019-05-19T18:21:02.950Z,21.09
2019-05-19T18:25:07.077Z,21.24
2019-05-19T18:29:10.503Z,21.28
2019-05-19T18:33:13.938Z,21.35
2019-05-19T18:37:17.909Z,21.23
2019-05-19T18:41:21.656Z,21.04
2019-05-19T18:45:25.224Z,20.64
2019-05-19T18:49:29.021Z,20.38
2019-05-19T18:53:32.566Z,20.25
2019-05-19T18:57:37.231Z,20.13
2019-05-19T19:01:40.851Z,19.98
2019-05-19T19:05:45.146Z,19.67
2019-05-19T19:09:48.645Z,19.59
2019-05-19T19:13:52.091Z,19.61
2019-05-19T19:17:55.527Z,19.59
2019-05-19T19:21:59.184Z,19.43
2019-05-19T19:26:02.586Z,19.27
2019-05-19T19:30:09.759Z,19.16
2019-05-19T19:34:13.536Z,19.08
2019-05-19T19:38:17.012Z,18.93
2019-05-19T19:42:20.660Z,18.85
2019-05-19T19:46:24.133Z,18.79
2019-05-19T19:50:28.440Z,18.67
2019-05-19T20:04:38.890Z,18.48
2019-05-19T20:08:42.338Z,18.23
2019-05-19T20:12:45.902Z,17.97
2019-05-19T20:16:49.402Z,17.64
2019-05-19T20:20:52.846Z,17.38
2019-05-19T20:24:56.270Z,17.11
2019-05-19T20:28:59.712Z,16.95
2019-05-19T20:33:03.484Z,16.85
2019-05-19T20:37:06.964Z,16.76
2019-05-19T20:41:11.037Z,16.28
2019-05-19T20:45:14.824Z,15.97
2019-05-19T20:49:19.223Z,15.92
2019-05-19T20:53:22.682Z,15.75
2019-05-19T20:57:26.193Z,15.69
2019-05-19T21:01:29.943Z,15.74
2019-05-19T21:05:33.373Z,15.72
2019-05-19T21:09:36.823Z,15.74
2019-05-19T21:13:40.266Z,15.73
2019-05-19T21:17:43.906Z,15.67
2019-05-19T21:21:47.449Z,15.50
2019-05-19T21:25:51.591Z,15.31
2019-05-19T21:29:55.191Z,15.17
2019-05-19T21:33:58.858Z,14.86
2019-05-19T21:38:02.265Z,14.72
2019-05-19T21:42:06.240Z,14.60
2019-05-19T21:46:09.969Z,14.62
2019-05-19T21:50:13.823Z,14.77
2019-05-19T21:54:17.326Z,14.73
2019-05-19T21:58:21.546Z,14.67
2019-05-19T22:02:25.319Z,14.53
2019-05-19T22:06:30.692Z,14.36
2019-05-19T22:10:34.217Z,14.32
2019-05-19T22:14:37.665Z,14.43
2019-05-19T22:18:41.557Z,14.35
2019-05-19T22:22:45.560Z,14.17
2019-05-19T22:26:50.000Z,14.16
2019-05-19T22:30:54.136Z,14.08
2019-05-19T22:34:57.661Z,14.08
2019-05-19T22:39:01.565Z,14.02
2019-05-19T22:43:05.342Z,14.03
2019-05-19T22:47:08.812Z,13.76
2019-05-19T22:51:12.388Z,13.74
2019-05-19T22:55:16.696Z,13.74
2019-05-19T22:59:20.516Z,13.54
2019-05-19T23:03:23.994Z,13.42
2019-05-19T23:07:27.411Z,13.34
2019-05-19T23:11:30.872Z,13.41
2019-05-19T23:15:34.637Z,13.57
2019-05-19T23:19:38.173Z,13.41
2019-05-19T23:23:41.974Z,13.41
2019-05-19T23:27:45.418Z,13.33
2019-05-19T23:31:49.181Z,13.20
2019-05-19T23:35:52.898Z,13.07
2019-05-19T23:39:56.845Z,12.93
2019-05-19T23:44:00.295Z,13.11
2019-05-19T23:48:04.261Z,13.20
2019-05-19T23:52:07.764Z,13.40
2019-05-19T23:56:11.143Z,13.41
